sensor_id;sensor_type;location;lat;lon;timestamp;P1;durP1;ratioP1;P2;durP2;ratioP2
34920;SDS011;21128;50.016;20.002;2024-03-06T00:00:53;63.30;;;36.50;;
34920;SDS011;21128;50.016;20.002;2024-03-06T00:03:43;55.50;;;34.30;;
34920;SDS011;21128;50.016;20.002;2024-03-06T00:06:09;65.90;;;37.10;;
34920;SDS011;21128;50.016;20.002;2024-03-06T00:08:36;65.20;;;37.60;;
34920;SDS011;21128;50.016;20.002;2024-03-06T00:11:03;67.50;;;36.10;;
34920;SDS011;21128;50.016;20.002;2024-03-06T00:13:30;62.40;;;36.20;;
34920;SDS011;21128;50.016;20.002;2024-03-06T00:15:58;68.00;;;37.00;;
34920;SDS011;21128;50.016;20.002;2024-03-06T00:18:25;65.10;;;36.10;;
34920;SDS011;21128;50.016;20.002;2024-03-06T00:20:51;70.40;;;36.60;;
34920;SDS011;21128;50.016;20.002;2024-03-06T00:23:18;73.60;;;38.40;;
34920;SDS011;21128;50.016;20.002;2024-03-06T00:25:45;68.70;;;37.20;;
34920;SDS011;21128;50.016;20.002;2024-03-06T00:28:12;76.50;;;38.60;;
34920;SDS011;21128;50.016;20.002;2024-03-06T00:30:38;72.20;;;36.90;;
34920;SDS011;21128;50.016;20.002;2024-03-06T00:33:05;72.80;;;36.00;;
34920;SDS011;21128;50.016;20.002;2024-03-06T00:35:32;72.60;;;36.20;;
34920;SDS011;21128;50.016;20.002;2024-03-06T00:37:59;67.10;;;35.50;;
34920;SDS011;21128;50.016;20.002;2024-03-06T00:40:29;76.00;;;35.70;;
34920;SDS011;21128;50.016;20.002;2024-03-06T00:42:58;80.50;;;36.50;;
34920;SDS011;21128;50.016;20.002;2024-03-06T00:45:25;73.40;;;35.60;;
34920;SDS011;21128;50.016;20.002;2024-03-06T00:47:52;78.90;;;35.80;;
34920;SDS011;21128;50.016;20.002;2024-03-06T00:50:18;73.70;;;37.90;;
34920;SDS011;21128;50.016;20.002;2024-03-06T00:52:48;78.20;;;38.20;;
34920;SDS011;21128;50.016;20.002;2024-03-06T00:55:15;74.10;;;38.10;;
34920;SDS011;21128;50.016;20.002;2024-03-06T00:57:43;69.00;;;37.20;;
34920;SDS011;21128;50.016;20.002;2024-03-06T01:00:09;68.70;;;38.20;;
34920;SDS011;21128;50.016;20.002;2024-03-06T01:02:37;69.50;;;37.60;;
34920;SDS011;21128;50.016;20.002;2024-03-06T01:05:04;68.10;;;38.60;;
34920;SDS011;21128;50.016;20.002;2024-03-06T01:07:31;69.20;;;39.60;;
34920;SDS011;21128;50.016;20.002;2024-03-06T01:09:58;72.10;;;37.40;;
34920;SDS011;21128;50.016;20.002;2024-03-06T01:12:25;68.30;;;38.70;;
34920;SDS011;21128;50.016;20.002;2024-03-06T01:14:52;73.60;;;41.30;;
34920;SDS011;21128;50.016;20.002;2024-03-06T01:17:19;72.80;;;40.60;;
34920;SDS011;21128;50.016;20.002;2024-03-06T01:19:45;74.80;;;39.70;;
34920;SDS011;21128;50.016;20.002;2024-03-06T01:22:12;79.10;;;41.90;;
34920;SDS011;21128;50.016;20.002;2024-03-06T01:24:42;73.40;;;38.80;;
34920;SDS011;21128;50.016;20.002;2024-03-06T01:27:08;72.20;;;38.80;;
34920;SDS011;21128;50.016;20.002;2024-03-06T01:29:35;76.70;;;40.10;;
34920;SDS011;21128;50.016;20.002;2024-03-06T01:32:02;71.00;;;39.10;;
34920;SDS011;21128;50.016;20.002;2024-03-06T01:34:29;73.00;;;38.70;;
34920;SDS011;21128;50.016;20.002;2024-03-06T01:36:56;70.90;;;38.20;;
34920;SDS011;21128;50.016;20.002;2024-03-06T01:39:22;77.20;;;39.10;;
34920;SDS011;21128;50.016;20.002;2024-03-06T01:41:50;74.10;;;40.00;;
34920;SDS011;21128;50.016;20.002;2024-03-06T01:44:18;73.50;;;36.80;;
34920;SDS011;21128;50.016;20.002;2024-03-06T01:46:45;67.10;;;36.50;;
34920;SDS011;21128;50.016;20.002;2024-03-06T01:49:14;72.60;;;38.20;;
34920;SDS011;21128;50.016;20.002;2024-03-06T01:51:42;69.90;;;37.00;;
34920;SDS011;21128;50.016;20.002;2024-03-06T01:54:14;69.80;;;36.80;;
34920;SDS011;21128;50.016;20.002;2024-03-06T01:56:45;70.40;;;38.30;;
34920;SDS011;21128;50.016;20.002;2024-03-06T01:59:13;65.60;;;35.80;;
34920;SDS011;21128;50.016;20.002;2024-03-06T02:01:43;66.10;;;36.50;;
34920;SDS011;21128;50.016;20.002;2024-03-06T02:04:10;58.40;;;34.80;;
34920;SDS011;21128;50.016;20.002;2024-03-06T02:06:39;68.00;;;37.20;;
34920;SDS011;21128;50.016;20.002;2024-03-06T02:09:06;60.80;;;33.80;;
34920;SDS011;21128;50.016;20.002;2024-03-06T02:11:33;64.80;;;35.30;;
34920;SDS011;21128;50.016;20.002;2024-03-06T02:14:00;60.30;;;32.70;;
34920;SDS011;21128;50.016;20.002;2024-03-06T02:16:27;59.70;;;33.00;;
34920;SDS011;21128;50.016;20.002;2024-03-06T02:18:54;62.50;;;34.70;;
34920;SDS011;21128;50.016;20.002;2024-03-06T02:21:24;63.10;;;32.20;;
34920;SDS011;21128;50.016;20.002;2024-03-06T02:23:51;59.90;;;31.20;;
34920;SDS011;21128;50.016;20.002;2024-03-06T02:26:18;58.40;;;32.30;;
34920;SDS011;21128;50.016;20.002;2024-03-06T02:28:51;60.80;;;32.40;;
34920;SDS011;21128;50.016;20.002;2024-03-06T02:31:20;59.10;;;33.00;;
34920;SDS011;21128;50.016;20.002;2024-03-06T02:33:48;61.50;;;33.60;;
34920;SDS011;21128;50.016;20.002;2024-03-06T02:36:16;60.10;;;33.00;;
34920;SDS011;21128;50.016;20.002;2024-03-06T02:38:44;56.80;;;31.90;;
34920;SDS011;21128;50.016;20.002;2024-03-06T02:41:11;58.90;;;31.60;;
34920;SDS011;21128;50.016;20.002;2024-03-06T02:43:40;60.30;;;32.90;;
34920;SDS011;21128;50.016;20.002;2024-03-06T02:46:07;57.00;;;31.60;;
34920;SDS011;21128;50.016;20.002;2024-03-06T02:48:33;55.30;;;31.50;;
34920;SDS011;21128;50.016;20.002;2024-03-06T02:51:01;59.90;;;31.50;;
34920;SDS011;21128;50.016;20.002;2024-03-06T02:53:28;58.90;;;32.90;;
34920;SDS011;21128;50.016;20.002;2024-03-06T02:55:55;60.60;;;31.90;;
34920;SDS011;21128;50.016;20.002;2024-03-06T02:58:21;59.80;;;32.10;;
34920;SDS011;21128;50.016;20.002;2024-03-06T03:00:48;61.80;;;32.90;;
34920;SDS011;21128;50.016;20.002;2024-03-06T03:03:15;66.00;;;34.60;;
34920;SDS011;21128;50.016;20.002;2024-03-06T03:05:43;69.20;;;34.60;;
34920;SDS011;21128;50.016;20.002;2024-03-06T03:08:09;69.50;;;34.80;;
34920;SDS011;21128;50.016;20.002;2024-03-06T03:10:36;66.80;;;35.20;;
34920;SDS011;21128;50.016;20.002;2024-03-06T03:13:03;64.80;;;33.40;;
34920;SDS011;21128;50.016;20.002;2024-03-06T03:15:31;61.90;;;33.10;;
34920;SDS011;21128;50.016;20.002;2024-03-06T03:17:59;61.40;;;33.00;;
34920;SDS011;21128;50.016;20.002;2024-03-06T03:20:26;63.60;;;32.60;;
34920;SDS011;21128;50.016;20.002;2024-03-06T03:22:52;54.40;;;29.70;;
34920;SDS011;21128;50.016;20.002;2024-03-06T03:25:19;66.80;;;31.80;;
34920;SDS011;21128;50.016;20.002;2024-03-06T03:27:48;55.80;;;31.00;;
34920;SDS011;21128;50.016;20.002;2024-03-06T03:30:15;74.10;;;32.90;;
34920;SDS011;21128;50.016;20.002;2024-03-06T03:32:42;63.40;;;32.40;;
34920;SDS011;21128;50.016;20.002;2024-03-06T03:35:09;67.30;;;32.80;;
34920;SDS011;21128;50.016;20.002;2024-03-06T03:37:36;62.90;;;30.40;;
34920;SDS011;21128;50.016;20.002;2024-03-06T03:40:03;61.50;;;32.00;;
34920;SDS011;21128;50.016;20.002;2024-03-06T03:42:30;65.10;;;31.90;;
34920;SDS011;21128;50.016;20.002;2024-03-06T03:44:57;65.50;;;30.30;;
34920;SDS011;21128;50.016;20.002;2024-03-06T03:47:24;66.70;;;31.70;;
34920;SDS011;21128;50.016;20.002;2024-03-06T03:49:50;60.00;;;32.00;;
34920;SDS011;21128;50.016;20.002;2024-03-06T03:52:17;65.80;;;32.50;;
34920;SDS011;21128;50.016;20.002;2024-03-06T03:54:44;66.80;;;35.00;;
34920;SDS011;21128;50.016;20.002;2024-03-06T03:57:11;74.80;;;37.50;;
34920;SDS011;21128;50.016;20.002;2024-03-06T03:59:38;63.40;;;33.60;;
34920;SDS011;21128;50.016;20.002;2024-03-06T04:02:05;61.70;;;32.60;;
34920;SDS011;21128;50.016;20.002;2024-03-06T04:04:31;67.10;;;32.50;;
34920;SDS011;21128;50.016;20.002;2024-03-06T04:07:00;59.30;;;31.40;;
34920;SDS011;21128;50.016;20.002;2024-03-06T04:09:28;57.90;;;31.00;;
34920;SDS011;21128;50.016;20.002;2024-03-06T04:11:54;55.90;;;29.90;;
34920;SDS011;21128;50.016;20.002;2024-03-06T04:14:21;55.80;;;29.90;;
34920;SDS011;21128;50.016;20.002;2024-03-06T04:16:48;49.50;;;29.10;;
34920;SDS011;21128;50.016;20.002;2024-03-06T04:19:15;62.00;;;29.80;;
34920;SDS011;21128;50.016;20.002;2024-03-06T04:21:42;53.30;;;28.90;;
34920;SDS011;21128;50.016;20.002;2024-03-06T04:24:09;50.80;;;29.30;;
34920;SDS011;21128;50.016;20.002;2024-03-06T04:26:36;53.20;;;29.60;;
34920;SDS011;21128;50.016;20.002;2024-03-06T04:29:03;53.00;;;28.90;;
34920;SDS011;21128;50.016;20.002;2024-03-06T04:31:30;60.90;;;28.40;;
34920;SDS011;21128;50.016;20.002;2024-03-06T04:33:57;55.00;;;28.50;;
34920;SDS011;21128;50.016;20.002;2024-03-06T04:36:24;51.50;;;28.10;;
34920;SDS011;21128;50.016;20.002;2024-03-06T04:38:50;52.80;;;28.40;;
34920;SDS011;21128;50.016;20.002;2024-03-06T04:41:20;59.30;;;30.60;;
34920;SDS011;21128;50.016;20.002;2024-03-06T04:43:47;56.20;;;30.00;;
34920;SDS011;21128;50.016;20.002;2024-03-06T04:46:16;53.50;;;28.90;;
34920;SDS011;21128;50.016;20.002;2024-03-06T04:48:43;50.90;;;27.80;;
34920;SDS011;21128;50.016;20.002;2024-03-06T04:51:10;56.20;;;29.90;;
34920;SDS011;21128;50.016;20.002;2024-03-06T04:53:37;56.90;;;28.50;;
34920;SDS011;21128;50.016;20.002;2024-03-06T04:56:04;55.20;;;30.40;;
34920;SDS011;21128;50.016;20.002;2024-03-06T04:58:31;53.50;;;28.10;;
34920;SDS011;21128;50.016;20.002;2024-03-06T05:00:58;51.80;;;27.30;;
34920;SDS011;21128;50.016;20.002;2024-03-06T05:03:24;56.00;;;28.70;;
34920;SDS011;21128;50.016;20.002;2024-03-06T05:05:52;51.20;;;28.20;;
34920;SDS011;21128;50.016;20.002;2024-03-06T05:08:19;48.20;;;27.60;;
34920;SDS011;21128;50.016;20.002;2024-03-06T05:10:47;52.70;;;29.10;;
34920;SDS011;21128;50.016;20.002;2024-03-06T05:13:13;51.30;;;28.50;;
34920;SDS011;21128;50.016;20.002;2024-03-06T05:15:40;51.50;;;28.10;;
34920;SDS011;21128;50.016;20.002;2024-03-06T05:18:07;55.40;;;29.30;;
34920;SDS011;21128;50.016;20.002;2024-03-06T05:20:35;52.90;;;28.50;;
34920;SDS011;21128;50.016;20.002;2024-03-06T05:23:02;53.60;;;28.80;;
34920;SDS011;21128;50.016;20.002;2024-03-06T05:25:29;52.30;;;29.50;;
34920;SDS011;21128;50.016;20.002;2024-03-06T05:27:55;54.70;;;28.90;;
34920;SDS011;21128;50.016;20.002;2024-03-06T05:30:22;55.20;;;29.10;;
34920;SDS011;21128;50.016;20.002;2024-03-06T05:32:49;57.80;;;30.60;;
34920;SDS011;21128;50.016;20.002;2024-03-06T05:35:16;56.60;;;30.10;;
34920;SDS011;21128;50.016;20.002;2024-03-06T05:37:44;55.30;;;30.40;;
34920;SDS011;21128;50.016;20.002;2024-03-06T05:40:11;53.50;;;28.90;;
34920;SDS011;21128;50.016;20.002;2024-03-06T05:42:38;55.20;;;29.60;;
34920;SDS011;21128;50.016;20.002;2024-03-06T05:45:05;57.70;;;30.20;;
34920;SDS011;21128;50.016;20.002;2024-03-06T05:47:36;53.90;;;29.10;;
34920;SDS011;21128;50.016;20.002;2024-03-06T05:50:07;61.40;;;32.10;;
34920;SDS011;21128;50.016;20.002;2024-03-06T05:52:34;62.30;;;30.10;;
34920;SDS011;21128;50.016;20.002;2024-03-06T05:55:01;54.70;;;30.30;;
34920;SDS011;21128;50.016;20.002;2024-03-06T05:57:29;55.30;;;29.30;;
34920;SDS011;21128;50.016;20.002;2024-03-06T05:59:55;56.70;;;29.40;;
34920;SDS011;21128;50.016;20.002;2024-03-06T06:02:23;54.40;;;30.90;;
34920;SDS011;21128;50.016;20.002;2024-03-06T06:04:50;57.70;;;31.40;;
34920;SDS011;21128;50.016;20.002;2024-03-06T06:07:17;59.40;;;29.80;;
34920;SDS011;21128;50.016;20.002;2024-03-06T06:09:44;59.00;;;31.90;;
34920;SDS011;21128;50.016;20.002;2024-03-06T06:12:11;61.50;;;31.20;;
34920;SDS011;21128;50.016;20.002;2024-03-06T06:14:38;61.30;;;31.50;;
34920;SDS011;21128;50.016;20.002;2024-03-06T06:17:05;56.40;;;30.90;;
34920;SDS011;21128;50.016;20.002;2024-03-06T06:19:31;56.70;;;30.10;;
34920;SDS011;21128;50.016;20.002;2024-03-06T06:21:58;58.20;;;31.80;;
34920;SDS011;21128;50.016;20.002;2024-03-06T06:24:28;61.50;;;32.50;;
34920;SDS011;21128;50.016;20.002;2024-03-06T06:26:55;61.10;;;31.70;;
34920;SDS011;21128;50.016;20.002;2024-03-06T06:29:22;58.10;;;31.70;;
34920;SDS011;21128;50.016;20.002;2024-03-06T06:31:49;59.50;;;30.40;;
34920;SDS011;21128;50.016;20.002;2024-03-06T06:34:16;69.00;;;34.30;;
34920;SDS011;21128;50.016;20.002;2024-03-06T06:36:45;64.10;;;32.80;;
34920;SDS011;21128;50.016;20.002;2024-03-06T06:39:12;70.80;;;33.90;;
34920;SDS011;21128;50.016;20.002;2024-03-06T06:41:39;63.90;;;31.80;;
34920;SDS011;21128;50.016;20.002;2024-03-06T06:44:06;63.20;;;32.50;;
34920;SDS011;21128;50.016;20.002;2024-03-06T06:46:33;59.60;;;32.10;;
34920;SDS011;21128;50.016;20.002;2024-03-06T06:48:59;58.70;;;30.50;;
34920;SDS011;21128;50.016;20.002;2024-03-06T06:51:26;58.10;;;29.70;;
34920;SDS011;21128;50.016;20.002;2024-03-06T06:53:53;55.80;;;30.80;;
34920;SDS011;21128;50.016;20.002;2024-03-06T06:56:21;53.90;;;27.70;;
34920;SDS011;21128;50.016;20.002;2024-03-06T06:58:50;60.50;;;30.00;;
34920;SDS011;21128;50.016;20.002;2024-03-06T07:01:17;60.30;;;28.30;;
34920;SDS011;21128;50.016;20.002;2024-03-06T07:03:44;58.80;;;28.50;;
34920;SDS011;21128;50.016;20.002;2024-03-06T07:06:10;53.00;;;28.30;;
34920;SDS011;21128;50.016;20.002;2024-03-06T07:08:37;54.00;;;29.10;;
34920;SDS011;21128;50.016;20.002;2024-03-06T07:11:04;51.30;;;27.90;;
34920;SDS011;21128;50.016;20.002;2024-03-06T07:13:31;50.10;;;28.70;;
34920;SDS011;21128;50.016;20.002;2024-03-06T07:15:58;55.30;;;29.30;;
34920;SDS011;21128;50.016;20.002;2024-03-06T07:18:25;51.50;;;27.40;;
34920;SDS011;21128;50.016;20.002;2024-03-06T07:20:52;53.20;;;28.30;;
34920;SDS011;21128;50.016;20.002;2024-03-06T07:23:18;53.20;;;28.10;;
34920;SDS011;21128;50.016;20.002;2024-03-06T07:25:45;53.80;;;28.20;;
34920;SDS011;21128;50.016;20.002;2024-03-06T07:28:12;52.20;;;26.50;;
34920;SDS011;21128;50.016;20.002;2024-03-06T07:30:39;50.90;;;29.30;;
34920;SDS011;21128;50.016;20.002;2024-03-06T07:33:06;60.60;;;31.80;;
34920;SDS011;21128;50.016;20.002;2024-03-06T07:35:33;53.10;;;29.30;;
34920;SDS011;21128;50.016;20.002;2024-03-06T07:38:02;60.20;;;31.60;;
34920;SDS011;21128;50.016;20.002;2024-03-06T07:40:31;62.00;;;31.90;;
34920;SDS011;21128;50.016;20.002;2024-03-06T07:42:58;63.30;;;32.40;;
34920;SDS011;21128;50.016;20.002;2024-03-06T07:45:26;65.20;;;32.70;;
34920;SDS011;21128;50.016;20.002;2024-03-06T07:47:53;64.40;;;33.00;;
34920;SDS011;21128;50.016;20.002;2024-03-06T07:50:20;72.80;;;36.00;;
34920;SDS011;21128;50.016;20.002;2024-03-06T07:52:47;67.90;;;34.10;;
34920;SDS011;21128;50.016;20.002;2024-03-06T07:55:13;79.00;;;36.40;;
34920;SDS011;21128;50.016;20.002;2024-03-06T07:57:39;73.00;;;36.70;;
34920;SDS011;21128;50.016;20.002;2024-03-06T08:00:06;70.90;;;36.00;;
34920;SDS011;21128;50.016;20.002;2024-03-06T08:02:40;70.50;;;36.40;;
34920;SDS011;21128;50.016;20.002;2024-03-06T08:05:09;87.20;;;37.10;;
34920;SDS011;21128;50.016;20.002;2024-03-06T08:07:38;77.40;;;37.20;;
34920;SDS011;21128;50.016;20.002;2024-03-06T08:10:09;72.60;;;36.50;;
34920;SDS011;21128;50.016;20.002;2024-03-06T08:12:43;71.80;;;36.30;;
34920;SDS011;21128;50.016;20.002;2024-03-06T08:15:10;80.90;;;37.60;;
34920;SDS011;21128;50.016;20.002;2024-03-06T08:17:38;77.50;;;37.20;;
34920;SDS011;21128;50.016;20.002;2024-03-06T08:20:07;72.00;;;36.50;;
34920;SDS011;21128;50.016;20.002;2024-03-06T08:22:34;71.00;;;35.70;;
34920;SDS011;21128;50.016;20.002;2024-03-06T08:25:07;85.30;;;37.50;;
34920;SDS011;21128;50.016;20.002;2024-03-06T08:27:35;74.80;;;35.90;;
34920;SDS011;21128;50.016;20.002;2024-03-06T08:30:02;65.40;;;35.10;;
34920;SDS011;21128;50.016;20.002;2024-03-06T08:32:32;65.70;;;34.60;;
34920;SDS011;21128;50.016;20.002;2024-03-06T08:35:02;71.10;;;35.60;;
34920;SDS011;21128;50.016;20.002;2024-03-06T08:37:31;64.20;;;34.00;;
34920;SDS011;21128;50.016;20.002;2024-03-06T08:39:59;73.90;;;33.90;;
34920;SDS011;21128;50.016;20.002;2024-03-06T08:42:28;61.90;;;32.30;;
34920;SDS011;21128;50.016;20.002;2024-03-06T08:44:54;71.80;;;35.00;;
34920;SDS011;21128;50.016;20.002;2024-03-06T08:47:20;76.80;;;36.10;;
34920;SDS011;21128;50.016;20.002;2024-03-06T08:49:45;70.40;;;35.40;;
34920;SDS011;21128;50.016;20.002;2024-03-06T08:54:39;64.20;;;34.10;;
34920;SDS011;21128;50.016;20.002;2024-03-06T08:57:06;68.70;;;34.80;;
34920;SDS011;21128;50.016;20.002;2024-03-06T08:59:34;59.90;;;31.20;;
34920;SDS011;21128;50.016;20.002;2024-03-06T09:02:11;60.30;;;33.20;;
34920;SDS011;21128;50.016;20.002;2024-03-06T09:04:40;61.00;;;33.20;;
34920;SDS011;21128;50.016;20.002;2024-03-06T09:07:07;63.70;;;32.60;;
34920;SDS011;21128;50.016;20.002;2024-03-06T09:09:33;56.10;;;31.90;;
34920;SDS011;21128;50.016;20.002;2024-03-06T09:12:00;59.00;;;31.20;;
34920;SDS011;21128;50.016;20.002;2024-03-06T09:14:26;58.00;;;29.80;;
34920;SDS011;21128;50.016;20.002;2024-03-06T09:16:52;58.80;;;30.90;;
34920;SDS011;21128;50.016;20.002;2024-03-06T09:19:19;52.10;;;29.40;;
34920;SDS011;21128;50.016;20.002;2024-03-06T09:21:45;47.30;;;31.40;;
34920;SDS011;21128;50.016;20.002;2024-03-06T09:24:10;50.50;;;29.70;;
34920;SDS011;21128;50.016;20.002;2024-03-06T09:26:36;50.80;;;29.70;;
34920;SDS011;21128;50.016;20.002;2024-03-06T09:29:02;56.50;;;30.90;;
34920;SDS011;21128;50.016;20.002;2024-03-06T09:31:28;54.10;;;29.70;;
34920;SDS011;21128;50.016;20.002;2024-03-06T09:33:54;55.40;;;29.00;;
34920;SDS011;21128;50.016;20.002;2024-03-06T09:36:19;53.80;;;30.00;;
34920;SDS011;21128;50.016;20.002;2024-03-06T09:38:45;54.20;;;30.00;;
34920;SDS011;21128;50.016;20.002;2024-03-06T09:41:11;54.60;;;30.20;;
34920;SDS011;21128;50.016;20.002;2024-03-06T09:43:37;50.30;;;29.30;;
34920;SDS011;21128;50.016;20.002;2024-03-06T09:46:03;54.40;;;28.30;;
34920;SDS011;21128;50.016;20.002;2024-03-06T09:48:29;49.80;;;28.40;;
34920;SDS011;21128;50.016;20.002;2024-03-06T09:50:57;54.50;;;29.90;;
34920;SDS011;21128;50.016;20.002;2024-03-06T09:53:26;49.50;;;26.90;;
34920;SDS011;21128;50.016;20.002;2024-03-06T09:55:52;45.70;;;28.10;;
34920;SDS011;21128;50.016;20.002;2024-03-06T09:58:18;54.60;;;29.30;;
34920;SDS011;21128;50.016;20.002;2024-03-06T10:00:44;52.20;;;29.30;;
34920;SDS011;21128;50.016;20.002;2024-03-06T10:03:13;49.60;;;27.70;;
34920;SDS011;21128;50.016;20.002;2024-03-06T10:05:39;49.30;;;28.30;;
34920;SDS011;21128;50.016;20.002;2024-03-06T10:08:06;47.00;;;28.10;;
34920;SDS011;21128;50.016;20.002;2024-03-06T10:10:32;49.10;;;29.40;;
34920;SDS011;21128;50.016;20.002;2024-03-06T10:12:58;48.10;;;27.80;;
34920;SDS011;21128;50.016;20.002;2024-03-06T10:15:26;46.90;;;28.60;;
34920;SDS011;21128;50.016;20.002;2024-03-06T10:18:10;49.60;;;28.90;;
34920;SDS011;21128;50.016;20.002;2024-03-06T10:20:37;50.80;;;28.20;;
34920;SDS011;21128;50.016;20.002;2024-03-06T10:23:02;48.50;;;29.10;;
34920;SDS011;21128;50.016;20.002;2024-03-06T10:25:28;47.70;;;28.70;;
34920;SDS011;21128;50.016;20.002;2024-03-06T10:28:04;47.80;;;28.10;;
34920;SDS011;21128;50.016;20.002;2024-03-06T10:30:38;48.70;;;28.70;;
34920;SDS011;21128;50.016;20.002;2024-03-06T10:33:09;49.40;;;29.10;;
34920;SDS011;21128;50.016;20.002;2024-03-06T10:35:36;49.40;;;28.90;;
34920;SDS011;21128;50.016;20.002;2024-03-06T10:38:03;49.20;;;29.10;;
34920;SDS011;21128;50.016;20.002;2024-03-06T10:40:31;52.90;;;30.70;;
34920;SDS011;21128;50.016;20.002;2024-03-06T10:42:59;58.00;;;30.80;;
34920;SDS011;21128;50.016;20.002;2024-03-06T10:47:58;53.90;;;29.80;;
34920;SDS011;21128;50.016;20.002;2024-03-06T10:50:25;46.10;;;28.60;;
34920;SDS011;21128;50.016;20.002;2024-03-06T10:52:55;49.10;;;29.30;;
34920;SDS011;21128;50.016;20.002;2024-03-06T10:55:23;46.00;;;27.10;;
34920;SDS011;21128;50.016;20.002;2024-03-06T10:57:51;47.70;;;29.80;;
34920;SDS011;21128;50.016;20.002;2024-03-06T11:00:18;47.90;;;30.10;;
34920;SDS011;21128;50.016;20.002;2024-03-06T11:02:46;56.00;;;30.80;;
34920;SDS011;21128;50.016;20.002;2024-03-06T11:05:14;49.60;;;30.00;;
34920;SDS011;21128;50.016;20.002;2024-03-06T11:07:41;55.10;;;31.90;;
34920;SDS011;21128;50.016;20.002;2024-03-06T11:10:08;54.10;;;30.20;;
34920;SDS011;21128;50.016;20.002;2024-03-06T11:12:42;54.40;;;29.40;;
34920;SDS011;21128;50.016;20.002;2024-03-06T11:17:40;50.80;;;29.50;;
34920;SDS011;21128;50.016;20.002;2024-03-06T11:20:12;55.20;;;30.50;;
34920;SDS011;21128;50.016;20.002;2024-03-06T11:28:24;52.00;;;30.80;;
34920;SDS011;21128;50.016;20.002;2024-03-06T11:30:56;36.00;;;22.70;;
34920;SDS011;21128;50.016;20.002;2024-03-06T11:33:28;45.50;;;27.50;;
34920;SDS011;21128;50.016;20.002;2024-03-06T11:38:46;47.00;;;28.30;;
34920;SDS011;21128;50.016;20.002;2024-03-06T11:41:13;48.60;;;28.30;;
34920;SDS011;21128;50.016;20.002;2024-03-06T11:43:42;50.00;;;29.10;;
34920;SDS011;21128;50.016;20.002;2024-03-06T11:46:09;48.30;;;28.80;;
34920;SDS011;21128;50.016;20.002;2024-03-06T11:48:36;49.90;;;29.40;;
34920;SDS011;21128;50.016;20.002;2024-03-06T11:51:02;48.80;;;29.20;;
34920;SDS011;21128;50.016;20.002;2024-03-06T11:53:30;53.20;;;29.80;;
34920;SDS011;21128;50.016;20.002;2024-03-06T11:55:58;53.90;;;30.10;;
34920;SDS011;21128;50.016;20.002;2024-03-06T11:58:23;47.80;;;29.00;;
34920;SDS011;21128;50.016;20.002;2024-03-06T12:00:49;47.70;;;28.90;;
34920;SDS011;21128;50.016;20.002;2024-03-06T12:03:15;52.60;;;29.40;;
34920;SDS011;21128;50.016;20.002;2024-03-06T12:05:42;50.10;;;29.40;;
34920;SDS011;21128;50.016;20.002;2024-03-06T12:08:10;50.80;;;29.60;;
34920;SDS011;21128;50.016;20.002;2024-03-06T12:10:39;50.90;;;31.40;;
34920;SDS011;21128;50.016;20.002;2024-03-06T12:13:04;51.90;;;30.70;;
34920;SDS011;21128;50.016;20.002;2024-03-06T12:15:31;49.50;;;29.10;;
34920;SDS011;21128;50.016;20.002;2024-03-06T12:17:56;55.30;;;31.50;;
34920;SDS011;21128;50.016;20.002;2024-03-06T12:20:23;57.00;;;31.50;;
34920;SDS011;21128;50.016;20.002;2024-03-06T12:22:51;53.90;;;30.30;;
34920;SDS011;21128;50.016;20.002;2024-03-06T12:25:22;55.80;;;32.10;;
34920;SDS011;21128;50.016;20.002;2024-03-06T12:27:50;55.80;;;32.00;;
34920;SDS011;21128;50.016;20.002;2024-03-06T12:30:17;54.20;;;30.50;;
34920;SDS011;21128;50.016;20.002;2024-03-06T12:32:44;52.90;;;31.80;;
34920;SDS011;21128;50.016;20.002;2024-03-06T12:35:10;58.60;;;33.80;;
34920;SDS011;21128;50.016;20.002;2024-03-06T12:37:36;55.90;;;32.20;;
34920;SDS011;21128;50.016;20.002;2024-03-06T12:40:05;57.30;;;32.00;;
34920;SDS011;21128;50.016;20.002;2024-03-06T12:42:37;52.50;;;32.50;;
34920;SDS011;21128;50.016;20.002;2024-03-06T12:45:03;61.10;;;32.60;;
34920;SDS011;21128;50.016;20.002;2024-03-06T12:47:29;55.00;;;31.30;;
34920;SDS011;21128;50.016;20.002;2024-03-06T12:49:55;59.60;;;31.70;;
34920;SDS011;21128;50.016;20.002;2024-03-06T12:52:21;54.90;;;30.70;;
34920;SDS011;21128;50.016;20.002;2024-03-06T12:54:46;54.40;;;33.60;;
34920;SDS011;21128;50.016;20.002;2024-03-06T12:57:12;57.20;;;31.50;;
34920;SDS011;21128;50.016;20.002;2024-03-06T12:59:38;57.50;;;32.40;;
34920;SDS011;21128;50.016;20.002;2024-03-06T13:02:03;52.20;;;30.50;;
34920;SDS011;21128;50.016;20.002;2024-03-06T13:04:29;62.70;;;34.10;;
34920;SDS011;21128;50.016;20.002;2024-03-06T13:06:55;61.80;;;36.50;;
34920;SDS011;21128;50.016;20.002;2024-03-06T13:09:21;63.40;;;37.70;;
34920;SDS011;21128;50.016;20.002;2024-03-06T13:11:48;65.20;;;39.40;;
34920;SDS011;21128;50.016;20.002;2024-03-06T13:14:14;66.90;;;39.90;;
34920;SDS011;21128;50.016;20.002;2024-03-06T13:16:40;66.50;;;38.30;;
34920;SDS011;21128;50.016;20.002;2024-03-06T13:19:05;73.20;;;41.20;;
34920;SDS011;21128;50.016;20.002;2024-03-06T13:21:33;66.60;;;40.20;;
34920;SDS011;21128;50.016;20.002;2024-03-06T13:23:58;68.40;;;41.10;;
34920;SDS011;21128;50.016;20.002;2024-03-06T13:26:24;68.00;;;39.10;;
34920;SDS011;21128;50.016;20.002;2024-03-06T13:28:50;65.90;;;39.20;;
34920;SDS011;21128;50.016;20.002;2024-03-06T13:31:16;64.20;;;38.40;;
34920;SDS011;21128;50.016;20.002;2024-03-06T13:33:42;63.30;;;35.30;;
34920;SDS011;21128;50.016;20.002;2024-03-06T13:36:08;56.90;;;34.70;;
34920;SDS011;21128;50.016;20.002;2024-03-06T13:38:34;61.10;;;35.60;;
34920;SDS011;21128;50.016;20.002;2024-03-06T13:41:00;62.40;;;36.90;;
34920;SDS011;21128;50.016;20.002;2024-03-06T13:43:28;55.60;;;35.30;;
34920;SDS011;21128;50.016;20.002;2024-03-06T13:45:53;53.10;;;32.70;;
34920;SDS011;21128;50.016;20.002;2024-03-06T13:48:19;62.00;;;34.80;;
34920;SDS011;21128;50.016;20.002;2024-03-06T13:50:46;50.40;;;30.80;;
34920;SDS011;21128;50.016;20.002;2024-03-06T13:53:12;53.50;;;30.40;;
34920;SDS011;21128;50.016;20.002;2024-03-06T13:55:38;46.70;;;27.60;;
34920;SDS011;21128;50.016;20.002;2024-03-06T13:58:05;50.20;;;30.60;;
34920;SDS011;21128;50.016;20.002;2024-03-06T14:00:32;51.90;;;32.00;;
34920;SDS011;21128;50.016;20.002;2024-03-06T14:03:00;53.00;;;32.20;;
34920;SDS011;21128;50.016;20.002;2024-03-06T14:05:26;53.80;;;32.50;;
34920;SDS011;21128;50.016;20.002;2024-03-06T14:07:51;55.00;;;33.60;;
34920;SDS011;21128;50.016;20.002;2024-03-06T14:10:18;55.80;;;32.70;;
34920;SDS011;21128;50.016;20.002;2024-03-06T14:12:45;58.50;;;33.60;;
34920;SDS011;21128;50.016;20.002;2024-03-06T14:15:11;55.80;;;32.90;;
34920;SDS011;21128;50.016;20.002;2024-03-06T14:17:41;59.30;;;34.20;;
34920;SDS011;21128;50.016;20.002;2024-03-06T14:20:07;53.80;;;33.20;;
34920;SDS011;21128;50.016;20.002;2024-03-06T14:22:34;56.40;;;33.80;;
34920;SDS011;21128;50.016;20.002;2024-03-06T14:25:01;58.20;;;33.80;;